»·PEaware :: RPA4636 KDCA-KEYW

RPA4636 :: KDCA-KEYW

FLIGHT INFORMATION

Flight Status: Arrived
Operator: Republic Airlines
More flights by this operator :: More flights under this callsign
Pilot: Anonymous 14085 (14085)
Aircraft: EMBRAER EMB-170/175
(E170)
More flights by this aircraft type
Origin: KDCA Ronald Reagan Washington Natl
United States
Destination: KEYW Key West Intl
United States
More flights between these airports :: More routes between these airports
Route: JDUBB3 RRSIN GSO Q75 ENEME Q65 DOFFY Q79 FEMID KARTR GIGIH
File this flight plan on PilotEdge
Remarks: RMK / SIMBRIEF
Altitude:
(Current/Filed)
32,000ft
Speed:
(Current/Filed)
470kts
Departed: 24-Sep-20 10:51 AM
Arrived: 24-Sep-20 01:13 PM
Distance/Time
Traveled:
891nm/2:22
Distance/Time
To Go:
Arrived

Flight Plot

Page will automatically refresh every two minutes.

Flight plan parsing failed; only flown route is shown


Map Options




Map Legend


Flown Route
Filed Route
Departure Airport
Arrival Airport
Navaid (VOR, NDB)
Fix

Horizontal Profiles

Position Reports

Time Latitude Longitude Heading Altitude Ground
Speed
24-Sep-20 10:21 38.856671 -77.042627 168 20ft 0kts
24-Sep-20 10:21 38.856671 -77.042627 168 20ft 0kts
24-Sep-20 10:23 38.856671 -77.042627 168 20ft 0kts
24-Sep-20 10:24 38.856671 -77.042627 168 20ft 0kts
24-Sep-20 10:24 38.856671 -77.042627 168 20ft 0kts
24-Sep-20 10:25 38.856671 -77.042627 168 20ft 0kts
24-Sep-20 10:27 38.856671 -77.042627 168 20ft 0kts
24-Sep-20 10:27 38.856671 -77.042627 168 20ft 0kts
24-Sep-20 10:28 38.856671 -77.042627 168 20ft 0kts
24-Sep-20 10:29 38.856671 -77.042627 168 20ft 0kts
24-Sep-20 10:30 38.856671 -77.042627 168 20ft 0kts
24-Sep-20 10:31 38.856671 -77.042627 168 20ft 0kts
24-Sep-20 10:32 38.856671 -77.042627 168 20ft 0kts
24-Sep-20 10:33 38.856671 -77.042627 168 20ft 0kts
24-Sep-20 10:34 38.856671 -77.042627 168 20ft 0kts
24-Sep-20 10:35 38.856671 -77.042627 168 20ft 0kts
24-Sep-20 10:36 38.856671 -77.042627 168 20ft 0kts
24-Sep-20 10:37 38.856671 -77.042627 168 20ft 0kts
24-Sep-20 10:38 38.856671 -77.042627 168 20ft 0kts
24-Sep-20 10:39 38.856671 -77.042627 168 20ft 0kts
24-Sep-20 10:40 38.856671 -77.042627 168 20ft 0kts
24-Sep-20 10:41 38.856671 -77.042627 168 20ft 0kts
24-Sep-20 10:42 38.856724 -77.042641 167 20ft 2kts
24-Sep-20 10:43 38.857173 -77.042812 147 20ft 0kts
24-Sep-20 10:44 38.857173 -77.042812 147 20ft 0kts
24-Sep-20 10:45 38.857173 -77.042811 147 20ft 0kts
24-Sep-20 10:46 38.857173 -77.042811 147 20ft 0kts
24-Sep-20 10:47 38.857128 -77.042242 60 20ft 4kts
24-Sep-20 10:48 38.857180 -77.039892 24 20ft 5kts
24-Sep-20 10:49 38.860007 -77.039623 18 20ft 8kts
24-Sep-20 10:50 38.855687 -77.038195 175 20ft 102kts
24-Sep-20 10:51 38.810918 -77.032259 172 1896ft 180kts
24-Sep-20 10:52 38.747088 -77.022783 178 3825ft 244kts
24-Sep-20 10:53 38.688527 -77.064532 246 6683ft 252kts
24-Sep-20 10:54 38.669806 -77.152797 257 9371ft 257kts
24-Sep-20 10:55 38.652844 -77.243317 257 11738ft 267kts
24-Sep-20 10:56 38.609288 -77.327990 227 13432ft 301kts
24-Sep-20 10:57 38.547081 -77.401343 224 15616ft 308kts
24-Sep-20 10:58 38.481769 -77.473610 225 17957ft 315kts
24-Sep-20 10:59 38.415148 -77.546689 226 20336ft 320kts
24-Sep-20 11:00 38.342019 -77.614355 221 22437ft 329kts
24-Sep-20 11:01 38.268067 -77.682911 227 24218ft 329kts
24-Sep-20 11:02 38.198309 -77.759131 228 25812ft 332kts
24-Sep-20 11:03 38.127556 -77.835233 228 27164ft 336kts
24-Sep-20 11:04 38.055583 -77.911638 228 28370ft 338kts
24-Sep-20 11:05 37.983593 -77.988548 229 29432ft 339kts
24-Sep-20 11:06 37.911426 -78.065393 228 30330ft 341kts
24-Sep-20 11:07 37.838324 -78.141679 228 31410ft 333kts
24-Sep-20 11:08 37.768267 -78.214783 229 32139ft 329kts
24-Sep-20 11:09 37.696461 -78.290692 229 32126ft 345kts
24-Sep-20 11:10 37.620962 -78.370072 228 32105ft 362kts
24-Sep-20 11:11 37.541514 -78.453305 228 32095ft 379kts
24-Sep-20 11:12 37.458889 -78.539581 227 32095ft 395kts
24-Sep-20 11:13 37.373520 -78.627403 227 32088ft 396kts
24-Sep-20 11:14 37.288677 -78.715143 227 32106ft 395kts
24-Sep-20 11:15 37.203890 -78.802898 227 32110ft 396kts
24-Sep-20 11:16 37.114916 -78.885006 212 32125ft 415kts
24-Sep-20 11:17 37.005022 -78.935710 213 32118ft 418kts
24-Sep-20 11:18 36.919137 -79.026739 234 32122ft 403kts
24-Sep-20 11:19 36.834850 -79.119967 218 32132ft 410kts
24-Sep-20 11:20 36.733782 -79.187095 212 32136ft 412kts
24-Sep-20 11:21 36.629820 -79.247177 211 32134ft 413kts
24-Sep-20 11:22 36.525892 -79.307103 211 32134ft 412kts
24-Sep-20 11:23 36.422013 -79.367243 212 32329ft 408kts
24-Sep-20 11:24 36.322495 -79.424543 212 33593ft 390kts
24-Sep-20 11:25 36.224062 -79.481448 212 34057ft 390kts
24-Sep-20 11:26 36.125468 -79.537792 210 34130ft 400kts
24-Sep-20 11:27 36.015696 -79.578185 197 34130ft 425kts
24-Sep-20 11:28 35.897591 -79.598009 196 34480ft 427kts
24-Sep-20 11:29 35.781495 -79.619774 198 35036ft 421kts
24-Sep-20 11:30 35.670050 -79.642821 198 36104ft 400kts
24-Sep-20 11:31 35.560221 -79.666878 198 36130ft 400kts
24-Sep-20 11:32 35.450770 -79.690946 198 36136ft 400kts
24-Sep-20 11:33 35.341345 -79.714101 198 36142ft 401kts
24-Sep-20 11:34 35.231409 -79.737063 198 36128ft 400kts
24-Sep-20 11:35 35.121401 -79.760038 198 36122ft 406kts
24-Sep-20 11:36 35.009051 -79.783460 197 36122ft 414kts
24-Sep-20 11:37 34.894445 -79.807216 196 36120ft 422kts
24-Sep-20 11:38 34.777813 -79.830891 195 36115ft 430kts
24-Sep-20 11:39 34.659169 -79.855064 195 36112ft 437kts
24-Sep-20 11:40 34.505744 -79.886582 195 36128ft 445kts
24-Sep-20 11:41 34.325243 -79.923303 195 36112ft 427kts
24-Sep-20 11:42 34.211162 -79.946348 196 37044ft 408kts
24-Sep-20 11:43 34.101423 -79.968725 196 37638ft 395kts
24-Sep-20 11:44 33.972307 -79.994962 196 38103ft 383kts
24-Sep-20 11:45 33.838210 -80.022044 196 38104ft 381kts
24-Sep-20 11:46 33.730933 -80.043511 196 37271ft 406kts
24-Sep-20 11:47 33.621286 -80.065596 195 36377ft 433kts
24-Sep-20 11:48 33.501331 -80.089484 195 36106ft 441kts
24-Sep-20 11:49 33.379753 -80.113635 195 36101ft 444kts
24-Sep-20 11:50 33.258166 -80.137751 195 36089ft 443kts
24-Sep-20 11:51 33.136138 -80.162020 195 36088ft 444kts
24-Sep-20 11:52 33.014238 -80.186265 194 36093ft 446kts
24-Sep-20 11:53 32.891277 -80.210530 193 36097ft 448kts
24-Sep-20 11:54 32.768278 -80.234330 193 36099ft 449kts
24-Sep-20 11:55 32.645215 -80.258279 193 36096ft 449kts
24-Sep-20 11:56 32.522383 -80.282358 193 36094ft 448kts
24-Sep-20 11:58 32.399274 -80.306443 193 36092ft 449kts
24-Sep-20 11:59 32.276371 -80.330400 193 36094ft 449kts
24-Sep-20 12:00 32.153329 -80.354268 193 36108ft 449kts
24-Sep-20 12:01 32.030459 -80.378037 193 36114ft 449kts
24-Sep-20 12:02 31.907677 -80.401751 193 36114ft 449kts
24-Sep-20 12:03 31.784735 -80.425213 193 36116ft 449kts
24-Sep-20 12:04 31.661746 -80.448563 193 36115ft 449kts
24-Sep-20 12:05 31.538374 -80.472197 193 36103ft 449kts
24-Sep-20 12:06 31.415378 -80.495735 193 36081ft 448kts
24-Sep-20 12:07 31.292483 -80.519192 193 36072ft 449kts
24-Sep-20 12:08 31.169441 -80.542576 193 36059ft 448kts
24-Sep-20 12:09 31.046121 -80.565931 193 36058ft 449kts
24-Sep-20 12:10 30.923001 -80.589191 194 36057ft 448kts
24-Sep-20 12:11 30.799887 -80.612212 194 36050ft 449kts
24-Sep-20 12:12 30.676993 -80.635027 194 36039ft 448kts
24-Sep-20 12:13 30.553437 -80.658418 194 36048ft 449kts
24-Sep-20 12:14 30.430511 -80.682761 194 36049ft 449kts
24-Sep-20 12:14 30.327514 -80.702343 194 36052ft 449kts
24-Sep-20 12:15 30.204297 -80.727483 195 36057ft 448kts
24-Sep-20 12:17 30.061043 -80.758263 195 36056ft 448kts
24-Sep-20 12:17 29.958221 -80.780020 195 36055ft 448kts
24-Sep-20 12:18 29.835779 -80.805571 195 36054ft 449kts
24-Sep-20 12:19 29.712742 -80.830944 195 36048ft 449kts
24-Sep-20 12:21 29.569205 -80.860891 195 36048ft 448kts
24-Sep-20 12:21 29.467100 -80.882209 195 36053ft 448kts
24-Sep-20 12:22 29.344659 -80.907717 195 36055ft 447kts
24-Sep-20 12:23 29.221996 -80.933180 195 36043ft 447kts
24-Sep-20 12:24 29.100161 -80.958362 195 36017ft 447kts
24-Sep-20 12:25 28.976974 -80.983846 194 36016ft 451kts
24-Sep-20 12:26 28.853566 -81.009180 193 36031ft 452kts
24-Sep-20 12:27 28.729929 -81.034164 193 36042ft 451kts
24-Sep-20 12:28 28.606410 -81.059391 193 36043ft 451kts
24-Sep-20 12:29 28.483059 -81.084652 193 36040ft 450kts
24-Sep-20 12:30 28.360256 -81.109740 193 36037ft 450kts
24-Sep-20 12:31 28.237347 -81.134779 193 36035ft 450kts
24-Sep-20 12:32 28.113950 -81.159814 193 36034ft 450kts
24-Sep-20 12:33 27.991147 -81.184666 193 36030ft 450kts
24-Sep-20 12:34 27.868059 -81.209509 193 36028ft 450kts
24-Sep-20 12:35 27.744794 -81.234023 193 36026ft 449kts
24-Sep-20 12:36 27.621705 -81.258655 193 36025ft 450kts
24-Sep-20 12:37 27.498779 -81.283355 193 36025ft 450kts
24-Sep-20 12:38 27.376109 -81.307956 193 36024ft 450kts
24-Sep-20 12:39 27.253111 -81.332554 193 36024ft 450kts
24-Sep-20 12:40 27.130118 -81.357054 193 36024ft 450kts
24-Sep-20 12:41 27.006825 -81.381563 193 36021ft 451kts
24-Sep-20 12:42 26.883014 -81.406173 192 36008ft 455kts
24-Sep-20 12:43 26.776938 -81.426886 192 36005ft 455kts
24-Sep-20 12:44 26.657362 -81.450293 192 36004ft 455kts
24-Sep-20 12:45 26.533064 -81.474824 192 36003ft 455kts
24-Sep-20 12:46 26.409180 -81.499216 192 34355ft 448kts
24-Sep-20 12:47 26.288519 -81.522885 192 32326ft 433kts
24-Sep-20 12:48 26.166934 -81.546853 191 30363ft 473kts
24-Sep-20 12:49 26.040905 -81.571459 191 28334ft 464kts
24-Sep-20 12:50 25.916619 -81.595601 191 25790ft 442kts
24-Sep-20 12:51 25.798360 -81.618440 190 23268ft 423kts
24-Sep-20 12:52 25.684697 -81.640349 190 20757ft 409kts
24-Sep-20 12:53 25.574638 -81.662192 190 18253ft 398kts
24-Sep-20 12:54 25.467361 -81.683981 190 15745ft 386kts
24-Sep-20 12:55 25.372072 -81.702540 189 13864ft 317kts
24-Sep-20 12:56 25.285975 -81.719120 189 12165ft 313kts
24-Sep-20 12:57 25.201010 -81.735457 189 10429ft 295kts
24-Sep-20 12:58 25.123444 -81.750347 189 8823ft 296kts
24-Sep-20 12:59 25.044627 -81.765452 189 7805ft 278kts
24-Sep-20 13:00 24.970014 -81.779702 188 6782ft 267kts
24-Sep-20 13:01 24.899047 -81.793337 192 5753ft 254kts
24-Sep-20 13:02 24.836521 -81.829262 210 4754ft 253kts
24-Sep-20 13:03 24.777049 -81.870554 211 3753ft 253kts
24-Sep-20 13:04 24.718226 -81.911940 211 3009ft 241kts
24-Sep-20 13:05 24.664072 -81.950205 210 3010ft 224kts
24-Sep-20 13:06 24.602705 -81.967370 181 1995ft 238kts
24-Sep-20 13:07 24.562950 -81.925779 105 1544ft 208kts
24-Sep-20 13:08 24.556561 -81.877850 96 1501ft 128kts
24-Sep-20 13:09 24.555877 -81.837649 92 995ft 128kts
24-Sep-20 13:10 24.555638 -81.800169 92 830ft 124kts
24-Sep-20 13:11 24.556085 -81.762287 88 9ft 92kts
24-Sep-20 13:12 24.556148 -81.756203 90 9ft 0kts
24-Sep-20 13:13 24.555378 -81.755866 177 8ft 0kts
24-Sep-20 13:14 24.554415 -81.755376 92 8ft 5kts
24-Sep-20 13:15 24.554851 -81.754506 351 8ft 2kts
24-Sep-20 13:16 24.554730 -81.754869 226 8ft 0kts

Navigation Log

Ident Type
Flight plan parsing failed, navigation log unavailable